Details for EasyJet at LFMN




Go Back


Latest METAR
Local Time

LFMN 221130Z 19011KT 9999 FEW023 SCT300 27/21 Q1015 NOSIG
22/09/2018, 13:49:59

Description
Results
EasyJet Logo
Number of Pilots based at LFMN
0 Pilots Based here
Number of EasyJet Flights Departed from LFMN
2 Flights Departed
Number of EasyJet Flights Arrived at LFMN
6 Flights Arrived
Number of EasyJet Schedules Departing from LFMN
99 Schedules
Number of EasyJet Schedules Arriving at LFMN
101 Schedules
Number of EasyJet Schedules Departing from LFMN availible today
42 Schedules Today
Number of EasyJet Schedules Arriving at LFMN availible today
43 Schedules Today
Average Landing Rate at LFMN
-224 fpm
EasyJet Average Landing Rate at LFMN
-218 fpm
Total Fuel Purchased at LFMN by EasyJet
6,670.53 kgs / 14,705.85 lbs

Pilots Based at LFMN


Pilot ID
Pilot Name
Pilot Rank
No. of Flights
No. of Flying Hours
There are no pilots assigned to this hub!   Will you be the first?
Content